Time;durP1;ratioP1;P1;durP2;ratioP2;P2;SDS_P1;SDS_P2;PMS_P1;PMS_P2;Temp;Humidity;BMP_temperature;BMP_pressure;BME280_temperature;BME280_humidity;BME280_pressure;Samples;Min_cycle;Max_cycle;Signal;HPM_P1;HPM_P2
2022/06/14 00:03:11;;;;;;;3.90;2.30;;;;;;;16.34;77.19;98365.27;104948;1272;61984;-23
2022/06/14 00:05:42;;;;;;;3.70;2.20;;;;;;;16.52;76.74;98367.08;104770;1274;73675;-23
2022/06/14 00:08:11;;;;;;;2.50;2.30;;;;;;;16.26;78.10;98382.95;104975;1271;74756;-23
2022/06/14 00:10:39;;;;;;;3.90;2.90;;;;;;;16.05;79.58;98398.81;105133;1272;74508;-25
2022/06/14 00:13:07;;;;;;;2.00;1.60;;;;;;;15.83;81.00;98409.60;104544;1274;63468;-25
2022/06/14 00:15:35;;;;;;;3.30;2.20;;;;;;;16.10;80.05;98403.57;104770;1271;63146;-24
2022/06/14 00:18:03;;;;;;;2.40;2.20;;;;;;;16.25;79.83;98402.92;104907;1272;76022;-24
2022/06/14 00:20:31;;;;;;;1.90;1.80;;;;;;;15.88;81.57;98415.60;104957;1271;77009;-23
2022/06/14 00:22:59;;;;;;;3.20;2.20;;;;;;;15.79;82.05;98427.86;104813;1271;74355;-22
2022/06/14 00:25:31;;;;;;;1.90;1.50;;;;;;;15.64;82.79;98440.58;104775;1271;63231;-22
2022/06/14 00:28:00;;;;;;;2.70;1.50;;;;;;;16.07;81.59;98463.94;104615;1275;62026;-22
2022/06/14 00:30:28;;;;;;;3.80;2.10;;;;;;;16.12;80.57;98474.98;104947;1272;75696;-22
2022/06/14 00:32:56;;;;;;;3.90;1.80;;;;;;;15.88;81.39;98473.77;104905;1274;75689;-22
2022/06/14 00:35:23;;;;;;;2.50;2.10;;;;;;;15.76;82.12;98473.48;104818;1272;74199;-23
2022/06/14 00:37:51;;;;;;;2.10;1.50;;;;;;;15.53;83.58;98467.50;104909;1271;64513;-23
2022/06/14 00:40:21;;;;;;;2.00;1.80;;;;;;;15.84;82.72;98460.77;104769;1271;63045;-22
2022/06/14 00:42:48;;;;;;;2.70;2.00;;;;;;;16.01;81.74;98449.00;104635;1272;74457;-23
2022/06/14 00:45:22;;;;;;;2.60;2.10;;;;;;;15.80;82.44;98446.09;104952;1272;77062;-22
2022/06/14 00:47:51;;;;;;;;;;;;;;;15.64;83.40;98444.22;104763;1271;74383;-22
2022/06/14 00:50:21;;;;;;;3.00;1.40;;;;;;;15.47;84.82;98451.02;104828;1272;63681;-22
2022/06/14 00:52:53;;;;;;;2.30;2.00;;;;;;;15.66;83.82;98455.77;104678;1271;63089;-22
2022/06/14 00:55:23;;;;;;;2.20;1.90;;;;;;;15.80;82.71;98452.79;104664;1271;73444;-22
2022/06/14 00:58:00;;;;;;;2.20;2.00;;;;;;;15.64;82.58;98452.12;104805;1271;77793;-22
2022/06/14 01:00:30;;;;;;;1.80;1.50;;;;;;;15.44;83.37;98460.48;104722;1272;75427;-22
2022/06/14 01:02:59;;;;;;;1.90;1.60;;;;;;;15.37;83.72;98458.58;104790;1272;62828;-22
2022/06/14 01:06:05;;;;;;;1.70;1.60;;;;;;;15.61;82.81;98460.50;104699;1271;63131;-22
2022/06/14 01:08:22;;;;;;;2.70;1.60;;;;;;;15.50;83.10;98460.48;104825;1272;74121;-22
2022/06/14 01:10:49;;;;;;;1.60;1.40;;;;;;;15.27;83.92;98453.52;104686;1274;75928;-22
2022/06/14 01:13:17;;;;;;;1.80;1.30;;;;;;;15.12;84.50;98444.74;104807;1271;74111;-23
2022/06/14 01:15:45;;;;;;;1.50;1.30;;;;;;;15.17;84.17;98436.79;104856;1272;63133;-23
2022/06/14 01:18:13;;;;;;;2.50;1.50;;;;;;;15.35;83.58;98440.95;104760;1274;61712;-22
2022/06/14 01:20:41;;;;;;;1.50;1.40;;;;;;;15.17;84.02;98436.49;104945;1271;75938;-22
2022/06/14 01:23:09;;;;;;;1.90;1.50;;;;;;;14.93;84.77;98445.02;104701;1274;76882;-22
2022/06/14 01:25:40;;;;;;;6.00;1.60;;;;;;;14.89;85.55;98448.61;104729;1276;75499;-23
2022/06/14 01:28:07;;;;;;;1.40;1.30;;;;;;;15.24;83.91;98449.13;104488;1275;63518;-22
2022/06/14 01:30:37;;;;;;;5.80;1.50;;;;;;;15.20;83.53;98448.23;104788;1272;61219;-22
2022/06/14 01:33:09;;;;;;;1.80;1.30;;;;;;;14.80;83.69;98443.98;104687;1274;74770;-22
2022/06/14 01:35:38;;;;;;;0.80;0.80;;;;;;;14.60;84.93;98447.68;104691;1272;77067;-22
2022/06/14 01:38:07;;;;;;;4.70;1.10;;;;;;;14.66;84.05;98444.38;104620;1274;74072;-23
2022/06/14 01:40:54;;;;;;;3.40;1.50;;;;;;;14.75;83.23;98448.31;104625;1271;62081;-22
2022/06/14 01:43:42;;;;;;;1.60;1.30;;;;;;;14.66;83.36;98462.98;104943;1274;62905;-22
2022/06/14 01:46:23;;;;;;;1.10;1.00;;;;;;;14.42;84.48;98474.95;104610;1274;75793;-22
2022/06/14 01:48:53;;;;;;;3.10;1.20;;;;;;;14.56;84.82;98481.59;104738;1271;76922;-22
2022/06/14 01:51:51;;;;;;;3.80;1.30;;;;;;;14.87;83.34;98490.42;104771;1272;74382;-22
2022/06/14 01:54:43;;;;;;;1.60;1.20;;;;;;;14.81;83.26;98492.90;104423;1275;63111;-22
2022/06/14 01:57:15;;;;;;;3.50;1.70;;;;;;;14.48;85.05;98509.55;104875;1274;62360;-22
2022/06/14 01:59:57;;;;;;;1.60;1.30;;;;;;;14.51;85.35;98504.91;105059;1271;75587;-23
2022/06/14 02:02:28;;;;;;;1.70;1.30;;;;;;;14.81;84.03;98499.92;104891;1271;75029;-23
2022/06/14 02:04:56;;;;;;;4.00;1.70;;;;;;;14.70;84.12;98497.05;104756;1274;75394;-23
2022/06/14 02:07:26;;;;;;;2.60;1.80;;;;;;;14.50;85.01;98494.52;104830;1274;61749;-22
2022/06/14 02:10:08;;;;;;;2.50;1.30;;;;;;;14.46;85.32;98490.67;104669;1274;62129;-22
2022/06/14 02:12:39;;;;;;;1.60;1.30;;;;;;;14.90;83.40;98483.77;104717;1274;76558;-23
2022/06/14 02:15:12;;;;;;;1.70;1.60;;;;;;;14.83;82.97;98478.05;104751;1272;77067;-22
2022/06/14 02:17:47;;;;;;;2.20;1.40;;;;;;;14.51;84.26;98490.33;104672;1272;75388;-23
2022/06/14 02:20:23;;;;;;;3.90;1.10;;;;;;;14.45;84.83;98507.63;104670;1271;62451;-23
2022/06/14 02:22:55;;;;;;;1.40;1.30;;;;;;;14.70;83.47;98522.79;104729;1274;62144;-23
2022/06/14 02:25:27;;;;;;;1.60;1.30;;;;;;;14.63;83.34;98530.96;104671;1274;75592;-23
2022/06/14 02:28:05;;;;;;;1.70;1.30;;;;;;;14.64;82.99;98534.52;104839;1274;77018;-23
2022/06/14 02:30:39;;;;;;;1.70;1.10;;;;;;;14.39;83.69;98537.73;104757;1271;75391;-23
2022/06/14 02:33:18;;;;;;;1.40;1.20;;;;;;;14.45;83.75;98547.89;104603;1274;61954;-23
2022/06/14 02:36:11;;;;;;;1.30;1.10;;;;;;;14.52;81.85;98532.80;104756;1271;61898;-24
2022/06/14 02:38:48;;;;;;;;;;;;;;;14.42;82.44;98555.52;104801;1272;75229;-24
2022/06/14 02:41:21;;;;;;;4.20;1.20;;;;;;;14.25;83.17;98551.01;104727;1274;77032;-24
2022/06/14 02:43:50;;;;;;;1.40;1.20;;;;;;;14.27;83.23;98550.48;105095;1274;75391;-24
2022/06/14 02:46:31;;;;;;;4.20;1.30;;;;;;;14.44;81.65;98556.95;104726;1271;63183;-24
2022/06/14 02:49:14;;;;;;;4.20;1.50;;;;;;;14.46;81.51;98574.35;105088;1271;61138;-24
2022/06/14 02:51:57;;;;;;;1.20;1.00;;;;;;;14.26;82.41;98579.59;104397;1275;76286;-24
2022/06/14 02:54:32;;;;;;;1.50;1.20;;;;;;;14.06;83.06;98576.59;104658;1274;76118;-24
2022/06/14 02:57:16;;;;;;;1.40;1.30;;;;;;;14.27;82.24;98576.16;104597;1271;75263;-24
2022/06/14 02:59:46;;;;;;;2.90;1.40;;;;;;;14.20;81.90;98566.08;104786;1272;61263;-24
2022/06/14 03:02:29;;;;;;;2.10;1.50;;;;;;;14.22;82.15;98584.74;104687;1272;63051;-24
2022/06/14 03:05:33;;;;;;;2.30;1.50;;;;;;;14.00;83.40;98580.34;104884;1274;76867;-24
2022/06/14 03:08:10;;;;;;;1.60;1.50;;;;;;;14.12;83.06;98580.47;104880;1271;76005;-24
2022/06/14 03:11:11;;;;;;;1.60;1.40;;;;;;;14.38;81.60;98582.10;104907;1274;74282;-24
2022/06/14 03:13:45;;;;;;;5.50;1.60;;;;;;;14.36;81.87;98581.52;104774;1274;63311;-24
2022/06/14 03:16:33;;;;;;;1.90;1.50;;;;;;;14.14;82.68;98587.13;104658;1274;63052;-24
2022/06/14 03:19:27;;;;;;;1.30;1.20;;;;;;;13.99;83.43;98595.77;104800;1272;76625;-24
2022/06/14 03:22:11;;;;;;;5.90;2.10;;;;;;;14.55;81.24;98600.54;104958;1274;76088;-24
2022/06/14 03:24:38;;;;;;;2.70;2.20;;;;;;;14.49;80.95;98600.81;104666;1271;74375;-24
2022/06/14 03:27:24;;;;;;;1.80;1.70;;;;;;;14.24;82.27;98601.02;104720;1274;61134;-24
2022/06/14 03:30:29;;;;;;;2.40;2.10;;;;;;;14.01;83.44;98592.58;104619;1272;62026;-24
2022/06/14 03:33:17;;;;;;;2.50;1.80;;;;;;;14.05;83.39;98597.27;104600;1274;76707;-24
2022/06/14 03:35:47;;;;;;;3.40;2.10;;;;;;;14.26;82.30;98599.95;104626;1275;75713;-24
2022/06/14 03:38:16;;;;;;;4.00;2.00;;;;;;;14.34;81.76;98596.34;104513;1275;74402;-24
2022/06/14 03:40:44;;;;;;;3.20;2.10;;;;;;;14.10;82.34;98602.68;104805;1272;62279;-24
2022/06/14 03:43:12;;;;;;;1.10;1.00;;;;;;;14.00;83.09;98599.21;104713;1271;62172;-24
2022/06/14 03:46:07;;;;;;;1.80;1.40;;;;;;;14.23;82.03;98596.83;104760;1271;74578;-24
2022/06/14 03:48:37;;;;;;;1.90;1.20;;;;;;;14.36;80.79;98607.63;104623;1274;76860;-24
2022/06/14 03:51:24;;;;;;;1.40;1.30;;;;;;;14.17;81.88;98613.17;104656;1277;75463;-24
2022/06/14 03:54:07;;;;;;;1.50;1.00;;;;;;;13.96;82.81;98622.23;104774;1271;63389;-24
2022/06/14 03:57:00;;;;;;;1.60;1.00;;;;;;;13.85;83.54;98631.55;104567;1274;61745;-24
2022/06/14 03:59:53;;;;;;;1.50;1.20;;;;;;;14.21;82.17;98634.56;104754;1271;75752;-24
2022/06/14 04:02:52;;;;;;;1.30;1.20;;;;;;;14.14;82.03;98640.63;104688;1272;76976;-24
2022/06/14 04:05:32;;;;;;;1.30;1.00;;;;;;;13.79;83.67;98665.63;104605;1272;74137;-24
2022/06/14 04:08:08;;;;;;;0.70;0.60;;;;;;;13.71;84.85;98669.84;104776;1271;63645;-24
2022/06/14 04:10:47;;;;;;;1.60;1.00;;;;;;;14.07;83.50;98666.48;104726;1274;62005;-24
2022/06/14 04:13:25;;;;;;;2.00;0.80;;;;;;;14.06;83.62;98665.57;104709;1271;76601;-24
2022/06/14 04:16:11;;;;;;;0.80;0.80;;;;;;;13.91;83.76;98655.21;104585;1274;76981;-24
2022/06/14 04:18:48;;;;;;;0.60;0.60;;;;;;;13.67;85.16;98651.05;104623;1274;75386;-23
2022/06/14 04:21:19;;;;;;;3.70;1.00;;;;;;;14.00;84.43;98663.70;104790;1274;63116;-22
2022/06/14 04:24:15;;;;;;;0.90;0.90;;;;;;;14.11;83.16;98659.62;104860;1271;63200;-22
2022/06/14 04:27:08;;;;;;;1.20;1.00;;;;;;;13.92;83.70;98658.41;105057;1271;74505;-22
2022/06/14 04:29:49;;;;;;;0.70;0.70;;;;;;;13.62;83.14;98664.27;104619;1271;77146;-22
2022/06/14 04:32:19;;;;;;;0.90;0.90;;;;;;;13.32;82.88;98664.70;104632;1271;74272;-21
2022/06/14 04:35:04;;;;;;;1.00;0.70;;;;;;;13.50;82.31;98678.80;104748;1271;61791;-21
2022/06/14 04:37:33;;;;;;;2.40;1.50;;;;;;;13.41;81.13;98687.58;104689;1271;62145;-22
2022/06/14 04:40:02;;;;;;;2.50;1.00;;;;;;;13.18;81.05;98690.65;104680;1271;75012;-22
2022/06/14 04:42:37;;;;;;;1.70;0.80;;;;;;;13.03;81.61;98699.44;104669;1271;75857;-22
2022/06/14 04:45:04;;;;;;;0.80;0.80;;;;;;;13.00;82.56;98705.14;104772;1274;74389;-22
2022/06/14 04:47:52;;;;;;;1.70;0.70;;;;;;;13.35;80.94;98702.98;104747;1271;61388;-22
2022/06/14 04:50:32;;;;;;;1.00;0.90;;;;;;;13.50;79.94;98698.70;104771;1271;63187;-22
2022/06/14 04:53:08;;;;;;;1.50;0.90;;;;;;;13.45;80.24;98699.21;104661;1274;74421;-22
2022/06/14 04:55:35;;;;;;;2.70;0.90;;;;;;;13.27;81.66;98704.25;104806;1271;75990;-22
2022/06/14 04:58:17;;;;;;;2.20;0.80;;;;;;;13.18;82.08;98709.31;104813;1273;74535;-23
2022/06/14 05:00:52;;;;;;;7.00;1.10;;;;;;;13.56;80.59;98710.71;104806;1271;63133;-22
2022/06/14 05:03:32;;;;;;;1.70;1.00;;;;;;;13.66;79.35;98710.05;104690;1271;63190;-22
2022/06/14 05:06:02;;;;;;;3.60;1.40;;;;;;;13.49;80.46;98713.31;104776;1272;76739;-22
2022/06/14 05:08:34;;;;;;;5.20;1.50;;;;;;;13.24;81.35;98718.31;104679;1271;77411;-23
2022/06/14 05:11:14;;;;;;;1.70;1.00;;;;;;;13.19;81.76;98724.33;104637;1271;75478;-22
2022/06/14 05:13:46;;;;;;;2.70;1.10;;;;;;;13.57;80.33;98723.97;104564;1271;61993;-22
2022/06/14 05:16:36;;;;;;;2.40;1.10;;;;;;;13.72;79.33;98725.02;104677;1271;62834;-22
2022/06/14 05:19:22;;;;;;;2.00;1.10;;;;;;;13.44;80.14;98719.40;104964;1271;76247;-23
2022/06/14 05:22:33;;;;;;;1.90;1.40;;;;;;;13.25;81.35;98725.88;104899;1271;76024;-22
2022/06/14 05:25:00;;;;;;;1.50;1.20;;;;;;;13.33;81.21;98719.31;104319;1274;75501;-23
2022/06/14 05:27:48;;;;;;;2.70;1.40;;;;;;;13.58;79.22;98727.94;104711;1271;61995;-23
2022/06/14 05:30:41;;;;;;;1.50;1.10;;;;;;;13.71;77.77;98733.10;104673;1271;62936;-23
2022/06/14 05:33:30;;;;;;;1.60;1.10;;;;;;;13.92;78.13;98735.25;104758;1271;76417;-23
2022/06/14 05:36:04;;;;;;;2.50;1.10;;;;;;;13.92;77.52;98732.80;104699;1274;77047;-24
2022/06/14 05:38:41;;;;;;;2.50;0.70;;;;;;;14.14;77.36;98736.13;104596;1274;75317;-25
2022/06/14 05:41:11;;;;;;;3.10;1.10;;;;;;;14.55;73.79;98717.02;104598;1272;61882;-26
2022/06/14 05:43:49;;;;;;;1.70;1.10;;;;;;;14.66;72.57;98727.39;104666;1272;62087;-24
2022/06/14 05:46:25;;;;;;;3.70;1.00;;;;;;;14.66;73.11;98729.63;104690;1271;75519;-25
2022/06/14 05:49:09;;;;;;;2.80;1.20;;;;;;;14.74;71.76;98725.72;104569;1274;74912;-24
2022/06/14 05:51:40;;;;;;;1.80;0.90;;;;;;;14.60;68.13;98720.80;104994;1271;75374;-24
2022/06/14 05:54:10;;;;;;;2.40;1.00;;;;;;;14.58;68.73;98726.61;104788;1271;61816;-24
2022/06/14 05:56:45;;;;;;;3.60;1.00;;;;;;;14.62;68.14;98728.83;104864;1271;61689;-24
2022/06/14 05:59:50;;;;;;;1.60;1.00;;;;;;;14.65;67.75;98744.23;104664;1274;74579;-24
2022/06/14 06:02:22;;;;;;;1.90;0.80;;;;;;;14.76;67.46;98738.46;104478;1274;76188;-24
2022/06/14 06:04:57;;;;;;;1.60;1.00;;;;;;;14.83;67.43;98747.91;104832;1271;75345;-24
2022/06/14 06:07:33;;;;;;;5.60;1.10;;;;;;;14.76;67.57;98744.18;104517;1271;62100;-24
2022/06/14 06:10:31;;;;;;;1.30;0.80;;;;;;;14.61;68.05;98757.75;104673;1271;61722;-24
2022/06/14 06:13:02;;;;;;;1.80;0.80;;;;;;;14.56;67.67;98763.20;104716;1273;76562;-24
2022/06/14 06:15:39;;;;;;;1.50;0.90;;;;;;;14.44;67.02;98754.98;104630;1271;77096;-24
2022/06/14 06:18:29;;;;;;;1.10;0.80;;;;;;;14.25;66.82;98762.60;104818;1271;75448;-24
2022/06/14 06:21:18;;;;;;;1.40;1.00;;;;;;;14.35;67.34;98762.13;104778;1271;61814;-24
2022/06/14 06:23:50;;;;;;;2.10;0.80;;;;;;;14.31;68.18;98771.27;105083;1271;63169;-24
2022/06/14 06:26:19;;;;;;;1.20;0.80;;;;;;;14.41;69.17;98771.65;104700;1271;76566;-24
2022/06/14 06:28:51;;;;;;;2.20;0.90;;;;;;;14.73;68.28;98771.23;104740;1271;76780;-24
2022/06/14 06:31:20;;;;;;;2.30;1.00;;;;;;;14.72;68.98;98774.30;104670;1271;74061;-24
2022/06/14 06:33:49;;;;;;;3.30;1.20;;;;;;;14.56;69.74;98770.99;104686;1271;61736;-24
2022/06/14 06:36:31;;;;;;;4.20;1.30;;;;;;;14.56;70.68;98780.62;104756;1271;61749;-24
2022/06/14 06:39:20;;;;;;;2.50;1.30;;;;;;;14.57;71.04;98781.27;104950;1271;76576;-24
2022/06/14 06:41:54;;;;;;;2.00;1.00;;;;;;;14.62;71.24;98778.27;104973;1271;76805;-24
2022/06/14 06:44:54;;;;;;;2.70;1.00;;;;;;;14.58;71.02;98779.03;104664;1272;74227;-25
2022/06/14 06:47:32;;;;;;;2.60;1.10;;;;;;;15.30;68.70;98783.08;104591;1272;62240;-24
2022/06/14 06:50:23;;;;;;;1.80;0.90;;;;;;;15.65;67.18;98776.89;104753;1271;61823;-24
2022/06/14 06:53:11;;;;;;;1.90;1.10;;;;;;;15.47;66.62;98783.20;104759;1272;75302;-24
2022/06/14 06:55:45;;;;;;;2.10;1.30;;;;;;;15.56;67.08;98786.89;104713;1271;76949;-24
2022/06/14 06:58:23;;;;;;;2.10;1.00;;;;;;;15.63;66.21;98786.40;105060;1271;74879;-24
2022/06/14 07:00:53;;;;;;;1.60;0.90;;;;;;;15.74;64.93;98792.17;105064;1271;62854;-24
2022/06/14 07:03:24;;;;;;;3.20;1.00;;;;;;;15.74;66.13;98793.83;104888;1271;63555;-24
2022/06/14 07:05:56;;;;;;;1.80;1.20;;;;;;;15.62;67.23;98792.73;104971;1271;76699;-24
2022/06/14 07:08:48;;;;;;;2.60;1.20;;;;;;;15.36;67.17;98797.08;104687;1271;76889;-24
2022/06/14 07:11:17;;;;;;;2.60;1.50;;;;;;;15.13;68.35;98797.05;104745;1271;75391;-24
2022/06/14 07:13:51;;;;;;;3.90;1.70;;;;;;;14.73;69.20;98791.48;104911;1271;63109;-24
2022/06/14 07:16:27;;;;;;;3.20;1.20;;;;;;;14.49;70.02;98799.06;104614;1272;61930;-24
2022/06/14 07:19:22;;;;;;;3.50;1.10;;;;;;;14.52;70.96;98805.48;104660;1271;74491;-24
2022/06/14 07:22:03;;;;;;;2.80;1.20;;;;;;;15.04;69.82;98806.55;104587;1272;76914;-24
2022/06/14 07:24:34;;;;;;;3.50;1.30;;;;;;;15.31;68.94;98811.44;104617;1272;75455;-24
2022/06/14 07:27:24;;;;;;;2.70;1.30;;;;;;;15.29;67.32;98800.61;104657;1271;62997;-24
2022/06/14 07:30:12;;;;;;;1.90;1.10;;;;;;;15.21;66.77;98807.58;104633;1271;62119;-24
2022/06/14 07:32:51;;;;;;;6.80;1.60;;;;;;;15.22;66.48;98802.77;104686;1271;75558;-24
2022/06/14 07:35:25;;;;;;;1.30;1.10;;;;;;;15.37;65.02;98807.27;104677;1275;77159;-24
2022/06/14 07:37:52;;;;;;;5.80;1.20;;;;;;;15.60;65.04;98826.39;104693;1271;74357;-24
2022/06/14 07:40:49;;;;;;;2.70;1.20;;;;;;;15.78;65.49;98824.13;104782;1271;62013;-24
2022/06/14 07:43:18;;;;;;;1.60;1.10;;;;;;;16.16;62.40;98829.54;104704;1271;61906;-24
2022/06/14 07:45:47;;;;;;;1.40;1.00;;;;;;;16.19;62.41;98833.98;104737;1271;75722;-24
2022/06/14 07:48:28;;;;;;;2.40;1.20;;;;;;;15.91;60.50;98833.08;104672;1271;76939;-24
2022/06/14 07:51:09;;;;;;;2.20;0.90;;;;;;;16.08;61.80;98837.79;104629;1271;74478;-25
2022/06/14 07:53:38;;;;;;;1.80;0.90;;;;;;;16.39;61.05;98838.30;104690;1271;62179;-25
2022/06/14 07:56:10;;;;;;;1.50;1.10;;;;;;;16.22;60.58;98835.04;104785;1271;61662;-24
2022/06/14 07:58:38;;;;;;;3.70;1.00;;;;;;;15.65;58.70;98844.20;104761;1271;75553;-25
2022/06/14 08:01:31;;;;;;;1.80;0.90;;;;;;;15.51;60.33;98843.14;104763;1271;76821;-24
2022/06/14 08:04:07;;;;;;;2.20;1.10;;;;;;;15.77;60.07;98848.02;104699;1271;75767;-25
2022/06/14 08:06:38;;;;;;;2.60;1.10;;;;;;;15.78;59.89;98847.23;104916;1271;62085;-25
2022/06/14 08:09:10;;;;;;;3.00;1.00;;;;;;;15.55;61.06;98858.73;105088;1271;63102;-25
2022/06/14 08:11:48;;;;;;;2.10;1.20;;;;;;;15.68;58.92;98860.71;104889;1271;76604;-24
2022/06/14 08:14:45;;;;;;;2.00;1.00;;;;;;;16.01;58.91;98857.86;104820;1271;75938;-25
2022/06/14 08:17:23;;;;;;;1.70;1.10;;;;;;;15.92;59.80;98862.59;104737;1271;74578;-25
2022/06/14 08:20:07;;;;;;;2.00;1.10;;;;;;;15.90;60.22;98860.52;104682;1271;62033;-25
2022/06/14 08:22:42;;;;;;;1.30;0.80;;;;;;;16.50;61.04;98858.99;104777;1271;62284;-25
2022/06/14 08:25:18;;;;;;;1.60;0.90;;;;;;;16.68;56.65;98853.03;104863;1271;74502;-25
2022/06/14 08:28:20;;;;;;;5.90;1.30;;;;;;;16.33;58.31;98851.50;104745;1271;75721;-25
2022/06/14 08:31:05;;;;;;;3.30;1.30;;;;;;;15.84;58.12;98853.15;104701;1271;75378;-24
2022/06/14 08:33:34;;;;;;;2.50;1.00;;;;;;;16.18;59.31;98863.89;104727;1271;61836;-25
2022/06/14 08:36:04;;;;;;;4.30;1.30;;;;;;;16.66;58.01;98860.27;104788;1271;61140;-24
2022/06/14 08:38:33;;;;;;;3.00;1.30;;;;;;;16.97;55.31;98851.67;104650;1271;74172;-25
2022/06/14 08:41:08;;;;;;;3.90;1.30;;;;;;;17.02;53.90;98852.54;104704;1272;76958;-25
2022/06/14 08:43:43;;;;;;;4.20;1.20;;;;;;;17.34;54.50;98856.64;104704;1271;74504;-26
2022/06/14 08:46:19;;;;;;;5.00;1.30;;;;;;;17.37;54.41;98861.80;104738;1272;62051;-24
2022/06/14 08:49:32;;;;;;;5.00;1.50;;;;;;;16.82;54.42;98860.05;104749;1271;63061;-24
2022/06/14 08:52:18;;;;;;;3.90;1.30;;;;;;;16.33;56.90;98867.85;104582;1274;75453;-24
2022/06/14 08:54:48;;;;;;;5.00;1.00;;;;;;;16.76;56.29;98863.89;104742;1271;76368;-24
2022/06/14 08:57:21;;;;;;;4.50;1.20;;;;;;;16.97;55.15;98858.86;104886;1271;74454;-24
2022/06/14 09:00:08;;;;;;;;;;;;;;;17.18;54.84;98857.89;104654;1271;62010;-24
2022/06/14 09:03:06;;;;;;;2.20;1.00;;;;;;;17.55;55.19;98854.96;104759;1272;61113;-24
2022/06/14 09:05:54;;;;;;;2.90;1.50;;;;;;;18.07;55.75;98857.55;104739;1271;76667;-24
2022/06/14 09:08:48;;;;;;;2.30;1.10;;;;;;;17.60;54.99;98857.55;104705;1271;76006;-24
2022/06/14 09:11:22;;;;;;;;;;;;;;;16.89;55.38;98865.65;104791;1271;74317;-24
2022/06/14 09:14:08;;;;;;;2.20;1.10;;;;;;;16.49;55.30;98877.89;104755;1271;62222;-24
2022/06/14 09:16:38;;;;;;;2.90;0.90;;;;;;;16.33;54.90;98880.29;104757;1271;63102;-24
2022/06/14 09:19:37;;;;;;;3.30;1.00;;;;;;;16.73;54.34;98878.59;104795;1271;75582;-24
2022/06/14 09:22:32;;;;;;;5.90;1.30;;;;;;;17.28;52.59;98866.08;105093;1271;76695;-24
2022/06/14 09:25:09;;;;;;;4.10;1.00;;;;;;;17.43;51.16;98879.84;104939;1271;75385;-24
2022/06/14 09:27:48;;;;;;;3.20;1.00;;;;;;;17.00;49.60;98883.57;105093;1271;61728;-23
2022/06/14 09:30:44;;;;;;;2.30;1.00;;;;;;;16.82;50.56;98886.38;105052;1271;63067;-24
2022/06/14 09:33:36;;;;;;;4.00;0.80;;;;;;;17.14;49.35;98883.65;104830;1272;75270;-24
2022/06/14 09:36:08;;;;;;;3.80;1.00;;;;;;;17.74;47.52;98873.03;105043;1271;75929;-24
2022/06/14 09:39:18;;;;;;;3.20;1.00;;;;;;;17.79;48.54;98882.52;105111;1271;74422;-24
2022/06/14 09:42:33;;;;;;;4.10;0.90;;;;;;;17.21;47.65;98886.02;104604;1271;62736;-24
2022/06/14 09:45:03;;;;;;;3.10;0.80;;;;;;;17.35;47.29;98887.20;104637;1271;62991;-24
2022/06/14 09:47:55;;;;;;;3.30;1.10;;;;;;;17.19;48.36;98888.67;104976;1271;76572;-24
2022/06/14 09:51:00;;;;;;;1.80;0.80;;;;;;;16.86;49.80;98897.50;104755;1271;76827;-24
2022/06/14 09:54:24;;;;;;;1.80;0.70;;;;;;;17.66;51.20;98888.35;104966;1271;381649;-25
2022/06/14 09:57:13;;;;;;;3.50;0.80;;;;;;;17.96;48.09;98878.11;104262;1279;61272;-24
2022/06/14 10:00:06;;;;;;;2.00;0.90;;;;;;;18.34;47.57;98883.25;104456;1280;62925;-24
2022/06/14 10:03:11;;;;;;;2.50;0.80;;;;;;;18.31;47.00;98884.56;104309;1280;75478;-24
2022/06/14 10:06:09;;;;;;;4.20;0.70;;;;;;;17.58;48.68;98886.05;104432;1280;76802;-24
2022/06/14 10:08:42;;;;;;;4.40;1.60;;;;;;;16.93;49.20;98900.59;104261;1280;75334;-24
2022/06/14 10:11:21;;;;;;;2.00;0.80;;;;;;;16.94;48.86;98894.34;104405;1280;62104;-24
2022/06/14 10:14:19;;;;;;;2.10;0.90;;;;;;;17.73;50.51;98895.98;104329;1280;61892;-24
2022/06/14 10:16:58;;;;;;;2.10;0.90;;;;;;;17.81;48.85;98898.02;103820;1280;76381;-25
2022/06/14 10:20:05;;;;;;;2.90;0.70;;;;;;;17.41;48.34;98889.77;104188;1279;77011;-24
2022/06/14 10:22:32;;;;;;;1.40;0.70;;;;;;;16.86;50.41;98899.08;104410;1279;75571;-24
2022/06/14 10:25:16;;;;;;;3.90;1.00;;;;;;;17.21;50.09;98896.80;104183;1280;61761;-24
2022/06/14 10:28:12;;;;;;;1.20;0.60;;;;;;;17.70;48.37;98893.82;104395;1271;61430;-24
2022/06/14 10:31:06;;;;;;;3.00;0.60;;;;;;;18.10;45.45;98891.92;104765;1271;76616;-24
2022/06/14 10:33:43;;;;;;;3.50;1.20;;;;;;;18.51;46.45;98892.68;104889;1274;75724;-24
2022/06/14 10:36:38;;;;;;;4.50;1.00;;;;;;;18.91;48.24;98896.80;104734;1271;75451;-24
2022/06/14 10:39:24;;;;;;;2.00;0.90;;;;;;;18.57;44.65;98884.27;104733;1271;62007;-24
2022/06/14 10:42:17;;;;;;;5.20;1.00;;;;;;;18.87;46.89;98893.71;104790;1271;63478;-24
2022/06/14 10:44:56;;;;;;;1.90;0.90;;;;;;;18.33;44.73;98896.70;104746;1271;76455;-24
2022/06/14 10:47:46;;;;;;;1.90;0.90;;;;;;;18.27;45.89;98895.14;104652;1271;76070;-24
2022/06/14 10:50:47;;;;;;;3.10;0.80;;;;;;;18.58;47.25;98898.51;104544;1271;75418;-24
2022/06/14 10:53:40;;;;;;;2.30;0.90;;;;;;;18.56;43.98;98884.39;104736;1271;61885;-23
2022/06/14 10:56:41;;;;;;;4.30;0.70;;;;;;;18.77;44.18;98887.65;104710;1271;63046;-23
2022/06/14 10:59:42;;;;;;;2.40;0.80;;;;;;;18.94;43.17;98879.23;104747;1271;75458;-24
2022/06/14 11:02:27;;;;;;;1.60;0.80;;;;;;;19.26;43.93;98881.78;104768;1272;76878;-24
2022/06/14 11:05:15;;;;;;;1.90;0.90;;;;;;;19.40;44.63;98876.55;104780;1271;74305;-24
2022/06/14 11:07:48;;;;;;;1.40;0.70;;;;;;;18.91;43.16;98889.95;104774;1271;61822;-24
2022/06/14 11:10:31;;;;;;;1.70;0.90;;;;;;;18.25;43.59;98895.45;104767;1271;62793;-24
2022/06/14 11:13:02;;;;;;;3.80;0.70;;;;;;;18.20;43.72;98896.10;104978;1271;75271;-24
2022/06/14 11:15:47;;;;;;;3.10;0.90;;;;;;;18.42;45.25;98883.66;104737;1271;76106;-24
2022/06/14 11:18:29;;;;;;;1.70;0.80;;;;;;;18.76;43.64;98890.84;104757;1271;75422;-24
2022/06/14 11:21:30;;;;;;;2.00;0.70;;;;;;;18.93;44.88;98885.86;104755;1271;63209;-24
2022/06/14 11:24:19;;;;;;;2.00;0.80;;;;;;;19.13;43.55;98886.79;104841;1271;61924;-24
2022/06/14 11:26:50;;;;;;;1.80;0.80;;;;;;;19.03;44.98;98887.30;104638;1271;75410;-23
2022/06/14 11:29:36;;;;;;;2.10;0.70;;;;;;;19.00;44.76;98879.77;104756;1271;75831;-24
2022/06/14 11:32:10;;;;;;;4.20;0.80;;;;;;;18.60;45.19;98883.77;105029;1271;75499;-27
2022/06/14 11:35:16;;;;;;;1.50;0.70;;;;;;;18.08;45.66;98884.28;104866;1272;62981;-24
2022/06/14 11:37:44;;;;;;;3.20;0.90;;;;;;;18.08;47.60;98883.02;104684;1271;62196;-24
2022/06/14 11:40:20;;;;;;;1.40;0.80;;;;;;;18.47;45.48;98877.50;104787;1271;76650;-24
2022/06/14 11:43:25;;;;;;;3.40;0.80;;;;;;;18.50;45.78;98884.92;104748;1271;75224;-24
2022/06/14 11:46:00;;;;;;;5.30;0.90;;;;;;;18.60;45.74;98879.63;104708;1271;75298;-24
2022/06/14 11:48:45;;;;;;;3.50;1.10;;;;;;;18.84;45.76;98878.77;104657;1271;62328;-26
2022/06/14 11:51:39;;;;;;;3.50;0.90;;;;;;;18.84;45.35;98884.91;104703;1271;62776;-25
2022/06/14 11:54:16;;;;;;;3.20;1.10;;;;;;;18.93;45.97;98891.79;104888;1271;76774;-26
2022/06/14 11:56:52;;;;;;;1.90;0.90;;;;;;;19.37;46.12;98888.56;104784;1271;77020;-25
2022/06/14 11:59:42;;;;;;;1.60;0.70;;;;;;;19.42;44.96;98891.42;104771;1271;73305;-24
2022/06/14 12:02:29;;;;;;;3.50;0.90;;;;;;;18.75;44.73;98888.99;105019;1271;62217;-24
2022/06/14 12:04:59;;;;;;;5.40;0.90;;;;;;;18.42;45.78;98878.92;105117;1271;61803;-25
2022/06/14 12:07:37;;;;;;;2.10;0.90;;;;;;;18.63;44.71;98878.98;104792;1271;76495;-25
2022/06/14 12:10:32;;;;;;;2.10;0.70;;;;;;;18.81;44.93;98877.10;104621;1271;75922;-25
2022/06/14 12:13:11;;;;;;;10.10;1.40;;;;;;;18.67;43.99;98877.23;104874;1271;74206;-25
2022/06/14 12:16:14;;;;;;;2.50;0.80;;;;;;;18.78;43.62;98877.02;104654;1274;61892;-25
2022/06/14 12:18:56;;;;;;;2.30;0.80;;;;;;;18.36;42.51;98879.65;104489;1274;61942;-26
2022/06/14 12:22:28;;;;;;;2.70;0.60;;;;;;;18.46;43.43;98873.79;104834;1271;76525;-25
2022/06/14 12:27:52;;;;;;;3.20;0.60;;;;;;;18.74;44.39;98876.16;104673;1271;75367;-25
2022/06/14 12:30:19;;;;;;;1.50;0.80;;;;;;;19.00;45.57;98871.31;104687;1272;63077;-25
2022/06/14 12:32:55;;;;;;;4.90;1.10;;;;;;;19.15;42.84;98868.66;104803;1271;62599;-25